Thursday, May 25, 2017, 8:26 AM EDT

KPTW, Pottstown Limerick Airport

Location: Royersford, PA, United States Lat: 40.233
Local Time: 8:26 AM EDT (12:26 GMT) Lon: -75.55
Time Zone: US/Eastern Elev: 291 ft

Show me the last for .
Show Decoded

2017-05-25 07:54 METAR KPTW 251154Z AUTO VRB04KT 1 1/4SM RA BR BKN008 OVC012 12/12 A2960 RMK AO2
                 SLP021 P0012 60033 70033 T01220117 10133 20122 57009 =
2017-05-25 07:50 METAR KPTW 251150Z AUTO VRB05KT 1 1/2SM RA BR OVC008 12/12 A2961 RMK AO2 CIG
                 005V010 P0010 =
2017-05-25 07:39 METAR KPTW 251139Z AUTO VRB04KT 2SM -RA BR BKN009 OVC013 12/12 A2961 RMK AO2 CIG
                 006V011 P0008 T01220117 =
2017-05-25 07:28 METAR KPTW 251128Z AUTO 09008KT 030V130 1 3/4SM -RA BR OVC009 12/12 A2961 RMK
                 AO2 CIG 006V012 P0006 T01220117 =
2017-05-25 07:12 METAR KPTW 251112Z AUTO 08007G15KT 2 1/2SM -RA BR BKN009 OVC013 12/12 A2962 RMK
                 AO2 CIG 007V011 P0004 T01220117 =
2017-05-25 07:02 METAR KPTW 251102Z AUTO 09008G16KT 050V120 1 1/2SM +RA BR OVC008 12/12 A2962 RMK
                 AO2 CIG 007V012 P0003 T01220117 =
2017-05-25 06:54 METAR KPTW 251054Z AUTO 08009G16KT 2SM RA BR OVC008 12/12 A2963 RMK AO2 CIG
                 007V012 SLP029 P0006 T01220117 =
2017-05-25 05:54 METAR KPTW 250954Z AUTO 07008G15KT 7SM -RA OVC009 12/12 A2963 RMK AO2 CIG
                 006V013 SLP030 P0005 T01220117 =
2017-05-25 05:29 METAR KPTW 250929Z AUTO 08007KT 8SM -RA OVC009 12/12 A2965 RMK AO2 CIG 006V011
                 P0003 T01220117 =
2017-05-25 05:03 METAR KPTW 250903Z AUTO VRB05KT 6SM -RA BR BKN010 OVC013 12/12 A2966 RMK AO2 CIG
                 007V012 P0001 T01220117 =
2017-05-25 04:54 METAR KPTW 250854Z AUTO 08010G15KT 6SM -RA BR BKN008 OVC012 12/12 A2967 RMK AO2
                 CIG 005V010 SLP043 P0006 60010 T01220117 58024 =
2017-05-25 04:04 METAR KPTW 250804Z AUTO VRB05KT 5SM RA BR OVC009 12/12 A2968 RMK AO2 CIG 007V015
                 P0002 T01220117 =
2017-05-25 03:54 METAR KPTW 250754Z AUTO 08004KT 8SM -RA BKN011 OVC015 12/12 A2968 RMK AO2 SLP048
                 P0004 T01220117 =
2017-05-25 02:54 METAR KPTW 250654Z AUTO VRB04KT 9SM -RA OVC011 13/11 A2972 RMK AO2 RAB26 SLP062
                 P0000 T01280111 =
2017-05-25 02:08 METAR KPTW 250608Z AUTO 09007KT 060V140 10SM OVC013 13/11 A2973 RMK AO2
                 T01330106 =
2017-05-25 01:54 METAR KPTW 250554Z AUTO VRB04KT 10SM OVC016 13/11 A2974 RMK AO2 SLP066 T01330106
                 10178 20133 58020 =
2017-05-25 01:04 METAR KPTW 250504Z AUTO VRB03KT 10SM BKN022 13/10 A2976 RMK AO2 T01330100 =
2017-05-25 00:54 METAR KPTW 250454Z AUTO VRB04KT 10SM SCT022 13/10 A2976 RMK AO2 SLP073 T01330100
                 402110128 =
2017-05-24 23:54 METAR KPTW 250354Z AUTO VRB05KT 10SM BKN090 14/10 A2978 RMK AO2 SLP081 T01390100
                 =
2017-05-24 22:54 METAR KPTW 250254Z AUTO 10006KT 10SM OVC095 15/10 A2980 RMK AO2 SLP087 T01500100
                 50006 =
2017-05-24 21:54 METAR KPTW 250154Z AUTO VRB04KT 10SM CLR 16/09 A2980 RMK AO2 SLP089 T01560089 =
2017-05-24 20:54 METAR KPTW 250054Z AUTO VRB03KT 10SM FEW041 BKN050 17/09 A2978 RMK AO2 SLP083
                 T01670094 =
2017-05-24 19:54 METAR KPTW 242354Z AUTO VRB05KT 10SM OVC050 18/09 A2978 RMK AO2 SLP081 T01780094
                 10211 20178 53008 =
2017-05-24 18:54 METAR KPTW 242254Z AUTO VRB04KT 10SM OVC050 18/09 A2977 RMK AO2 SLP076 T01830089
                 =
2017-05-24 17:54 METAR KPTW 242154Z AUTO VRB06KT 10SM SCT065 19/09 A2976 RMK AO2 SLP074 T01940089
                 =
2017-05-24 16:54 METAR KPTW 242054Z AUTO 10008KT 070V130 10SM BKN047 OVC065 20/10 A2975 RMK AO2
                 SLP073 T02000100 51001 =
2017-05-24 15:54 METAR KPTW 241954Z AUTO VRB05KT 10SM SCT046 OVC070 21/11 A2975 RMK AO2 SLP070
                 T02060111 =
2017-05-24 14:54 METAR KPTW 241854Z AUTO 09009KT 10SM SCT047 21/11 A2977 RMK AO2 SLP076 T02060106
                 =
2017-05-24 13:54 METAR KPTW 241754Z AUTO VRB05KT 10SM SCT044 BKN065 21/10 A2975 RMK AO2 SLP071
                 T02060100 10211 20139 55002 =
2017-05-24 12:54 METAR KPTW 241654Z AUTO 05009KT 030V090 10SM SCT040 21/11 A2974 RMK AO2 SLP068
                 T02060106 =
2017-05-24 11:54 METAR KPTW 241554Z AUTO 07007KT 040V130 10SM FEW036 19/11 A2976 RMK AO2 SLP073
                 T01890106 =
2017-05-24 10:54 METAR KPTW 241454Z AUTO VRB03KT 10SM FEW025 18/11 A2976 RMK AO2 SLP074 T01780111
                 50002 =
2017-05-24 09:54 METAR KPTW 241354Z AUTO 03007KT 9SM FEW100 17/12 A2976 RMK AO2 SLP076 T01670117
                 =
2017-05-24 08:54 METAR KPTW 241254Z AUTO 00000KT 8SM FEW080 SCT110 16/11 A2977 RMK AO2 SLP079
                 T01610111 =

Support USWX by starting your Amazon purchase here.